Terminal Aerodrome Forecast
Issued by NWS

Home | Current Version | Previous Version | Text Only | Print | Product List | Glossary On
Versions: 1 2 3 4 5 6 7 8 9 10 11 12
000
FTUS45 KABQ 011737
TAFSAF
TAF
KSAF 011737Z 0118/0218 26007KT P6SM SCT150
     FM012100 34011KT P6SM VCSH BKN080
      TEMPO 0121/0124 VRB15G25KT 6SM -TSRA BKN070CB
     FM020000 12011KT P6SM VCSH BKN090
     FM020600 02007KT P6SM BKN090=

USA.gov is the U.S. government's official web portal to all federal, state and local government web resources and services.